Time;durP1;ratioP1;P1;durP2;ratioP2;P2;SDS_P1;SDS_P2;PMS_P1;PMS_P2;Temp;Humidity;BMP_temperature;BMP_pressure;BME280_temperature;BME280_humidity;BME280_pressure;Samples;Min_cycle;Max_cycle;Signal;HPM_P1;HPM_P2
2023/04/22 00:02:13;;;;;;;4.53;2.47;;;;;;;19.43;42.92;100730.03;4997269;28;20029;-74
2023/04/22 00:04:40;;;;;;;3.97;2.25;;;;;;;19.44;43.16;100736.13;4994235;28;20025;-73
2023/04/22 00:07:05;;;;;;;4.20;2.22;;;;;;;19.37;43.10;100720.81;4972411;28;20084;-74
2023/04/22 00:09:31;;;;;;;3.47;2.10;;;;;;;19.40;42.97;100728.47;4999818;28;20585;-75
2023/04/22 00:11:57;;;;;;;4.38;2.40;;;;;;;19.39;42.91;100728.63;4999371;28;20300;-76
2023/04/22 00:14:23;;;;;;;4.75;2.40;;;;;;;19.37;42.99;100723.47;4982340;28;20072;-74
2023/04/22 00:16:48;;;;;;;4.20;2.60;;;;;;;19.38;42.93;100733.06;4976580;28;20525;-74
2023/04/22 00:19:13;;;;;;;4.53;2.30;;;;;;;19.36;43.03;100726.28;4998117;28;20038;-74
2023/04/22 00:21:38;;;;;;;4.50;2.20;;;;;;;19.35;42.89;100729.88;5001256;28;20514;-73
2023/04/22 00:24:04;;;;;;;3.90;2.38;;;;;;;19.36;42.90;100726.28;5000310;28;20030;-73
2023/04/22 00:26:30;;;;;;;4.40;2.45;;;;;;;19.33;42.90;100722.06;4975723;28;20073;-73
2023/04/22 00:28:56;;;;;;;5.07;2.75;;;;;;;19.32;42.82;100730.13;4984013;28;20033;-75
2023/04/22 00:31:21;;;;;;;4.07;2.50;;;;;;;19.34;42.82;100728.19;5001429;28;20037;-74
2023/04/22 00:33:46;;;;;;;4.03;2.40;;;;;;;19.33;42.68;100724.72;4991509;28;20116;-78
2023/04/22 00:36:11;;;;;;;4.28;2.63;;;;;;;19.32;42.72;100730.97;4982660;28;20030;-75
2023/04/22 00:38:37;;;;;;;3.60;2.10;;;;;;;19.31;42.65;100721.38;4992721;28;20030;-74
2023/04/22 00:41:03;;;;;;;5.45;2.67;;;;;;;19.32;42.88;100728.31;4981207;28;20351;-76
2023/04/22 00:43:29;;;;;;;3.88;2.38;;;;;;;19.31;42.86;100720.53;4997207;28;20048;-74
2023/04/22 00:45:56;;;;;;;4.53;2.50;;;;;;;19.29;42.72;100723.31;4988489;28;20030;-75
2023/04/22 00:48:23;;;;;;;3.97;2.45;;;;;;;19.30;42.57;100718.88;4992773;28;20030;-74
2023/04/22 00:50:49;;;;;;;4.05;2.35;;;;;;;19.29;42.51;100728.59;4988749;28;20042;-72
2023/04/22 00:53:14;;;;;;;4.07;2.50;;;;;;;19.28;42.56;100734.88;4991497;28;20042;-74
2023/04/22 00:55:39;;;;;;;4.18;2.40;;;;;;;19.28;42.77;100734.00;4989392;28;20135;-74
2023/04/22 00:58:05;;;;;;;4.07;2.40;;;;;;;19.26;42.64;100735.97;4990571;28;20038;-76
2023/04/22 01:00:31;;;;;;;4.85;2.50;;;;;;;19.25;42.54;100719.28;4995381;28;20842;-74
2023/04/22 01:02:56;;;;;;;4.53;2.20;;;;;;;19.27;42.60;100732.34;4989970;28;20044;-74
2023/04/22 01:05:23;;;;;;;4.05;2.38;;;;;;;19.24;42.42;100733.44;4990984;28;20029;-74
2023/04/22 01:07:48;;;;;;;3.90;2.30;;;;;;;19.24;42.54;100727.34;4991193;28;20450;-72
2023/04/22 01:10:13;;;;;;;4.20;2.40;;;;;;;19.24;42.54;100724.69;4991085;28;20050;-77
2023/04/22 01:12:39;;;;;;;3.80;2.00;;;;;;;19.20;42.58;100721.47;4995411;28;20033;-74
2023/04/22 01:15:05;;;;;;;3.80;2.22;;;;;;;19.23;42.58;100717.72;4976736;28;20410;-73
2023/04/22 01:17:32;;;;;;;4.65;2.47;;;;;;;19.23;42.54;100720.38;4995673;28;20108;-75
2023/04/22 01:19:58;;;;;;;4.38;2.20;;;;;;;19.19;42.77;100718.00;4991568;28;20092;-73
2023/04/22 01:22:25;;;;;;;4.10;2.20;;;;;;;19.23;42.57;100720.38;4974342;28;20470;-74
2023/04/22 01:24:50;;;;;;;3.88;2.22;;;;;;;19.19;42.79;100715.34;4999852;28;20092;-73
2023/04/22 01:27:16;;;;;;;3.97;2.20;;;;;;;19.19;42.59;100717.19;5000365;28;20065;-76
2023/04/22 01:29:41;;;;;;;4.03;2.22;;;;;;;19.20;42.54;100724.09;4989780;28;20039;-78
2023/04/22 01:32:06;;;;;;;3.88;2.40;;;;;;;19.18;42.63;100720.78;4991286;28;20038;-76
2023/04/22 01:34:32;;;;;;;3.80;2.20;;;;;;;19.14;42.66;100709.66;5004793;28;20037;-74
2023/04/22 01:36:58;;;;;;;4.03;2.50;;;;;;;19.17;42.94;100714.66;5003282;28;20981;-76
2023/04/22 01:39:23;;;;;;;4.10;2.50;;;;;;;19.17;42.48;100717.31;4991721;28;20046;-73
2023/04/22 01:41:49;;;;;;;3.83;2.25;;;;;;;19.16;42.65;100712.97;4996268;28;20030;-74
2023/04/22 01:44:15;;;;;;;3.60;2.03;;;;;;;19.15;42.50;100718.41;5002211;28;20129;-74
2023/04/22 01:46:40;;;;;;;3.80;1.98;;;;;;;19.15;42.59;100716.63;4995733;28;20490;-74
2023/04/22 01:49:05;;;;;;;4.03;2.20;;;;;;;19.14;42.68;100717.56;4984759;28;20050;-74
2023/04/22 01:51:31;;;;;;;4.07;2.08;;;;;;;19.14;42.73;100711.47;4990774;28;20679;-74
2023/04/22 01:53:56;;;;;;;4.10;2.17;;;;;;;19.14;42.52;100717.56;4969382;28;20034;-74
2023/04/22 01:56:21;;;;;;;3.42;1.95;;;;;;;19.11;42.80;100715.19;4996334;28;20125;-76
2023/04/22 01:58:47;;;;;;;3.40;2.10;;;;;;;19.11;42.54;100709.91;4988187;28;20081;-75
2023/04/22 02:01:12;;;;;;;3.78;2.08;;;;;;;19.10;42.63;100707.41;4989603;28;20042;-76
2023/04/22 02:03:38;;;;;;;3.92;2.22;;;;;;;19.12;42.52;100711.59;5003759;28;20045;-72
2023/04/22 02:06:03;;;;;;;3.58;2.13;;;;;;;19.09;42.76;100711.00;4992816;28;20042;-74
2023/04/22 02:08:29;;;;;;;3.88;2.08;;;;;;;19.10;42.50;100707.41;4985939;28;20539;-74
2023/04/22 02:10:54;;;;;;;3.75;2.13;;;;;;;19.09;42.58;100706.59;4984274;28;20035;-74
2023/04/22 02:13:20;;;;;;;3.75;1.92;;;;;;;19.05;42.49;100705.16;4991419;28;20109;-74
2023/04/22 02:15:45;;;;;;;4.03;2.22;;;;;;;19.07;42.43;100713.78;4981388;28;20026;-75
2023/04/22 02:18:10;;;;;;;4.80;2.50;;;;;;;19.07;42.56;100703.22;4994225;28;20037;-74
2023/04/22 02:20:36;;;;;;;4.20;2.00;;;;;;;19.08;42.69;100702.25;5001973;28;20108;-76
2023/04/22 02:23:02;;;;;;;3.58;2.22;;;;;;;19.08;42.57;100706.72;4995683;28;20073;-73
2023/04/22 02:25:28;;;;;;;3.88;2.10;;;;;;;19.07;42.63;100697.94;4990745;28;20146;-73
2023/04/22 02:27:54;;;;;;;4.75;2.22;;;;;;;19.07;42.55;100707.69;4990868;28;20141;-75
2023/04/22 02:30:20;;;;;;;3.78;2.30;;;;;;;19.05;42.57;100699.88;4999759;28;20129;-74
2023/04/22 02:32:46;;;;;;;4.15;1.98;;;;;;;19.05;42.56;100697.25;4977317;28;20502;-76
2023/04/22 02:35:11;;;;;;;3.38;2.00;;;;;;;19.03;42.46;100689.44;4993435;28;20050;-73
2023/04/22 02:37:37;;;;;;;3.92;2.22;;;;;;;19.06;42.44;100687.50;4971989;28;20036;-73
2023/04/22 02:40:03;;;;;;;4.38;2.20;;;;;;;19.06;42.51;100692.78;4983976;28;20502;-74
2023/04/22 02:42:28;;;;;;;3.67;2.17;;;;;;;19.03;42.29;100692.09;4988799;28;20608;-73
2023/04/22 02:44:54;;;;;;;3.58;2.17;;;;;;;19.01;42.58;100682.66;4981419;28;20037;-75
2023/04/22 02:47:21;;;;;;;4.47;2.25;;;;;;;19.02;42.20;100684.31;5002318;28;20033;-75
2023/04/22 02:49:46;;;;;;;3.90;2.40;;;;;;;19.03;42.45;100684.16;4995913;28;20033;-74
2023/04/22 02:52:11;;;;;;;3.60;2.20;;;;;;;19.00;42.14;100680.97;4993464;28;20030;-74
2023/04/22 02:54:36;;;;;;;3.50;2.10;;;;;;;19.04;42.39;100679.72;4999191;28;20897;-72
2023/04/22 02:57:02;;;;;;;3.92;2.45;;;;;;;19.04;42.66;100682.34;5002721;28;20030;-74
2023/04/22 02:59:27;;;;;;;3.95;2.40;;;;;;;19.01;42.41;100680.84;4997055;28;20135;-73
2023/04/22 03:01:52;;;;;;;4.10;2.30;;;;;;;19.02;42.39;100686.94;4986058;28;20044;-72
2023/04/22 03:04:20;;;;;;;4.00;2.22;;;;;;;19.01;42.32;100686.13;5002963;28;20102;-73
2023/04/22 03:06:47;;;;;;;3.70;2.10;;;;;;;18.99;42.27;100688.06;4998231;28;20030;-73
2023/04/22 03:09:12;;;;;;;4.20;2.30;;;;;;;19.00;42.35;100686.25;4992394;28;20445;-72
2023/04/22 03:11:38;;;;;;;4.13;2.40;;;;;;;18.95;42.29;100673.44;4990868;28;20057;-74
2023/04/22 03:14:03;;;;;;;4.40;2.38;;;;;;;18.98;42.32;100675.00;4988831;28;20041;-79
2023/04/22 03:16:28;;;;;;;4.25;2.40;;;;;;;18.92;42.25;100659.69;5003143;28;20029;-74
2023/04/22 03:18:54;;;;;;;4.45;2.35;;;;;;;18.98;42.38;100673.19;4999432;28;20037;-75
2023/04/22 03:21:19;;;;;;;4.20;2.50;;;;;;;18.97;42.17;100670.69;4977731;28;20058;-77
2023/04/22 03:23:45;;;;;;;3.90;2.50;;;;;;;18.96;42.71;100664.56;4988161;28;20064;-75
2023/04/22 03:26:10;;;;;;;3.85;2.38;;;;;;;18.96;42.41;100659.28;4986481;28;20283;-74
2023/04/22 03:28:36;;;;;;;4.13;2.40;;;;;;;18.96;42.06;100650.50;4969934;28;20925;-74
2023/04/22 03:31:01;;;;;;;4.60;2.47;;;;;;;18.93;42.48;100651.63;4984601;28;20363;-75
2023/04/22 03:33:26;;;;;;;5.45;2.30;;;;;;;18.95;42.16;100646.22;5001659;28;20263;-74
2023/04/22 03:35:53;;;;;;;4.47;2.58;;;;;;;18.93;42.25;100654.28;4995904;28;20041;-72
2023/04/22 03:38:19;;;;;;;4.30;2.47;;;;;;;18.94;42.20;100649.81;4999344;28;20045;-73
2023/04/22 03:40:44;;;;;;;4.60;2.60;;;;;;;18.94;42.21;100645.34;4965540;28;20454;-75
2023/04/22 03:43:10;;;;;;;4.20;2.60;;;;;;;18.92;42.23;100642.03;4984475;28;20038;-74
2023/04/22 03:45:35;;;;;;;4.18;2.55;;;;;;;18.94;42.04;100639.25;4990776;28;20287;-74
2023/04/22 03:48:00;;;;;;;3.95;2.28;;;;;;;18.93;42.24;100640.22;4989183;28;20031;-76
2023/04/22 03:50:25;;;;;;;4.25;2.65;;;;;;;18.92;42.01;100631.47;4988227;28;20046;-74
2023/04/22 03:52:51;;;;;;;3.80;2.30;;;;;;;18.91;42.32;100634.25;4991774;28;20059;-74
2023/04/22 03:55:16;;;;;;;4.70;2.67;;;;;;;18.91;42.27;100629.78;4987979;28;20034;-73
2023/04/22 03:57:41;;;;;;;4.15;2.50;;;;;;;18.88;42.01;100631.88;4992812;28;20585;-75
2023/04/22 04:00:07;;;;;;;4.10;2.42;;;;;;;18.87;42.13;100623.13;5002120;28;20038;-73
2023/04/22 04:02:32;;;;;;;4.78;2.40;;;;;;;18.90;42.17;100633.41;4985681;28;20049;-73
2023/04/22 04:04:57;;;;;;;3.78;2.50;;;;;;;18.90;42.23;100628.13;4982115;28;20045;-75
2023/04/22 04:07:23;;;;;;;4.23;2.50;;;;;;;18.91;42.16;100618.41;4997000;28;20041;-76
2023/04/22 04:09:48;;;;;;;5.47;2.50;;;;;;;18.91;42.39;100610.47;4964663;28;20370;-73
2023/04/22 04:12:13;;;;;;;4.18;2.38;;;;;;;18.90;42.29;100609.66;4995195;28;20490;-73
2023/04/22 04:14:38;;;;;;;4.20;2.60;;;;;;;18.89;42.07;100620.34;5001583;28;20053;-74
2023/04/22 04:17:04;;;;;;;3.70;2.23;;;;;;;18.91;42.19;100623.69;4996462;28;20275;-73
2023/04/22 04:19:29;;;;;;;4.10;2.60;;;;;;;18.88;42.17;100608.94;5001508;28;20815;-73
2023/04/22 04:21:55;;;;;;;4.45;2.78;;;;;;;18.89;42.03;100615.06;4988913;28;20034;-73
2023/04/22 04:24:21;;;;;;;4.05;2.55;;;;;;;18.88;42.18;100602.81;5000322;28;20058;-73
2023/04/22 04:26:47;;;;;;;4.68;2.63;;;;;;;18.87;41.87;100611.69;4982276;28;20045;-73
2023/04/22 04:29:13;;;;;;;4.88;2.72;;;;;;;18.88;42.26;100610.75;4990815;28;20034;-73
2023/04/22 04:31:40;;;;;;;4.18;2.47;;;;;;;18.87;41.95;100607.28;4999756;28;20038;-73
2023/04/22 04:34:06;;;;;;;4.43;2.58;;;;;;;18.88;42.03;100610.75;4984390;28;20042;-71
2023/04/22 04:36:32;;;;;;;4.18;2.47;;;;;;;18.88;41.98;100613.38;4990855;28;20314;-72
2023/04/22 04:38:57;;;;;;;4.13;2.42;;;;;;;18.83;41.96;100608.47;4998744;28;20119;-73
2023/04/22 04:41:25;;;;;;;4.97;2.53;;;;;;;18.87;42.21;100609.91;4993797;28;20182;-72
2023/04/22 04:43:51;;;;;;;4.72;2.40;;;;;;;18.84;42.03;100610.19;4996374;28;20025;-75
2023/04/22 04:46:16;;;;;;;4.60;2.50;;;;;;;18.83;42.01;100605.84;4984695;28;20041;-72
2023/04/22 04:48:42;;;;;;;4.90;2.75;;;;;;;18.81;42.18;100611.25;4995685;28;20092;-75
2023/04/22 04:51:08;;;;;;;4.47;2.60;;;;;;;18.83;42.11;100617.25;4976121;28;20030;-73
2023/04/22 04:53:33;;;;;;;4.20;2.40;;;;;;;18.82;41.95;100620.84;4984525;28;20034;-77
2023/04/22 04:55:59;;;;;;;4.30;2.38;;;;;;;18.82;42.20;100623.47;4989514;28;20824;-73
2023/04/22 04:58:26;;;;;;;4.22;2.60;;;;;;;18.81;42.09;100627.09;4976175;28;20042;-73
2023/04/22 05:00:52;;;;;;;3.80;2.40;;;;;;;18.82;42.02;100630.59;4988520;28;20039;-72
2023/04/22 05:03:17;;;;;;;4.63;2.80;;;;;;;18.79;42.15;100623.75;4995730;28;20031;-73
2023/04/22 05:05:42;;;;;;;4.28;2.58;;;;;;;18.81;41.89;100624.44;4988805;28;20092;-74
2023/04/22 05:08:07;;;;;;;4.25;2.40;;;;;;;18.81;42.25;100620.97;4994413;28;20034;-76
2023/04/22 05:10:33;;;;;;;3.78;2.40;;;;;;;18.81;42.02;100619.16;4976487;28;20034;-73
2023/04/22 05:12:58;;;;;;;3.65;2.40;;;;;;;18.80;42.12;100611.38;4988345;28;20038;-74
2023/04/22 05:15:24;;;;;;;4.22;2.47;;;;;;;18.78;41.97;100602.78;4980297;28;20130;-75
2023/04/22 05:17:49;;;;;;;3.90;2.42;;;;;;;18.75;42.31;100600.41;4968801;28;20034;-73
2023/04/22 05:20:14;;;;;;;3.90;1.98;;;;;;;18.72;42.26;100601.47;4985819;28;20445;-73
2023/04/22 05:22:44;;;;;;;3.70;2.22;;;;;;;18.71;42.24;100607.75;5001236;28;20058;-73
2023/04/22 05:25:10;;;;;;;3.15;2.17;;;;;;;18.70;42.63;100606.06;4997231;28;20058;-74
2023/04/22 05:27:35;;;;;;;3.35;1.83;;;;;;;18.72;42.54;100616.50;4987632;28;20044;-72
2023/04/22 05:30:01;;;;;;;3.70;1.67;;;;;;;18.71;42.75;100609.53;4985170;28;20031;-72
2023/04/22 05:32:26;;;;;;;3.58;1.80;;;;;;;18.75;42.75;100606.50;4997261;28;20030;-72
2023/04/22 05:34:51;;;;;;;4.15;1.67;;;;;;;18.77;42.59;100607.22;5004898;28;20060;-75
2023/04/22 05:37:16;;;;;;;2.77;1.50;;;;;;;18.79;42.50;100605.28;4994677;28;20034;-77
2023/04/22 05:39:42;;;;;;;2.85;1.55;;;;;;;18.82;42.50;100593.63;4984531;28;20802;-73
2023/04/22 05:42:07;;;;;;;3.10;1.70;;;;;;;18.85;42.69;100599.50;4991669;28;20062;-76
2023/04/22 05:44:33;;;;;;;3.40;1.67;;;;;;;18.89;42.75;100599.22;4984815;28;20362;-75
2023/04/22 05:46:58;;;;;;;3.90;1.70;;;;;;;18.88;42.61;100602.81;4999270;28;20092;-76
2023/04/22 05:49:23;;;;;;;3.17;1.70;;;;;;;18.91;42.58;100608.66;4985001;28;20034;-74
2023/04/22 05:51:49;;;;;;;2.88;1.52;;;;;;;18.92;42.71;100601.59;4994932;28;20346;-75
2023/04/22 05:54:14;;;;;;;2.72;1.45;;;;;;;18.94;42.66;100605.75;4993618;28;20074;-73
2023/04/22 05:56:40;;;;;;;3.33;1.60;;;;;;;18.97;42.79;100608.13;4993395;28;20034;-73
2023/04/22 05:59:05;;;;;;;2.92;1.50;;;;;;;18.98;42.46;100596.59;4969331;28;20027;-73
2023/04/22 06:01:30;;;;;;;3.35;1.60;;;;;;;18.99;42.54;100600.91;4984830;28;20399;-72
2023/04/22 06:03:56;;;;;;;2.92;1.42;;;;;;;18.99;42.52;100595.63;4995270;28;20390;-73
2023/04/22 06:06:21;;;;;;;3.05;1.40;;;;;;;19.03;42.66;100596.19;4994412;28;20037;-74
2023/04/22 06:08:47;;;;;;;2.97;1.65;;;;;;;19.07;42.57;100596.75;4986205;28;20054;-75
2023/04/22 06:11:12;;;;;;;3.05;1.60;;;;;;;19.05;42.58;100599.53;4978399;28;20538;-74
2023/04/22 06:13:38;;;;;;;3.47;1.80;;;;;;;19.05;42.63;100599.53;4977074;28;20057;-72
2023/04/22 06:16:06;;;;;;;3.20;1.50;;;;;;;19.10;42.54;100609.69;4985137;28;20108;-73
2023/04/22 06:18:31;;;;;;;3.70;1.52;;;;;;;19.07;42.65;100602.84;4987879;28;20639;-75
2023/04/22 06:20:57;;;;;;;3.58;1.55;;;;;;;19.10;42.53;100596.47;5001967;28;20479;-71
2023/04/22 06:23:22;;;;;;;2.78;1.52;;;;;;;19.11;42.66;100587.59;4992144;28;20038;-75
2023/04/22 06:25:47;;;;;;;3.03;1.52;;;;;;;19.12;42.46;100591.88;4991562;28;20050;-72
2023/04/22 06:28:13;;;;;;;2.88;1.40;;;;;;;19.12;42.59;100590.09;4983900;28;20470;-72
2023/04/22 06:30:38;;;;;;;2.55;1.30;;;;;;;19.12;42.52;100589.22;4973459;28;20042;-72
2023/04/22 06:33:03;;;;;;;4.00;1.53;;;;;;;19.14;42.46;100596.06;4992873;28;20121;-70
2023/04/22 06:35:28;;;;;;;5.32;1.80;;;;;;;19.15;42.75;100589.81;4985549;28;20271;-72
2023/04/22 06:37:54;;;;;;;3.15;1.50;;;;;;;19.15;42.73;100589.81;4988899;28;20050;-73
2023/04/22 06:40:19;;;;;;;2.80;1.50;;;;;;;19.13;42.72;100580.34;4986983;28;20034;-72
2023/04/22 06:42:44;;;;;;;2.80;1.45;;;;;;;19.21;42.67;100578.69;4984262;28;20042;-73
2023/04/22 06:45:11;;;;;;;3.72;1.65;;;;;;;19.22;42.55;100576.88;4983514;28;20832;-72
2023/04/22 06:47:38;;;;;;;3.92;1.83;;;;;;;19.22;42.77;100576.88;4983512;28;20038;-72
2023/04/22 06:50:06;;;;;;;3.33;1.60;;;;;;;19.22;42.94;100574.25;4983959;28;20030;-72
2023/04/22 06:52:31;;;;;;;3.05;1.55;;;;;;;19.19;43.19;100575.34;4987702;28;20411;-72
2023/04/22 06:54:56;;;;;;;3.22;1.50;;;;;;;19.22;43.63;100584.81;4973090;28;20042;-73
2023/04/22 06:57:21;;;;;;;3.75;1.40;;;;;;;19.21;43.62;100583.97;4999388;28;20092;-74
2023/04/22 06:59:47;;;;;;;3.28;1.50;;;;;;;19.21;43.80;100580.50;4988474;28;20061;-75
2023/04/22 07:02:12;;;;;;;3.53;1.42;;;;;;;19.21;43.74;100562.81;4999137;28;20034;-72
2023/04/22 07:04:37;;;;;;;3.60;1.60;;;;;;;19.23;43.95;100575.91;4996976;28;20034;-73
2023/04/22 07:07:03;;;;;;;3.75;1.88;;;;;;;19.26;43.99;100570.34;4993314;28;20045;-72
2023/04/22 07:09:28;;;;;;;3.88;1.40;;;;;;;19.28;44.17;100575.47;5001248;28;20367;-73
2023/04/22 07:11:53;;;;;;;3.33;1.65;;;;;;;19.29;44.08;100570.06;4987750;28;20471;-73
2023/04/22 07:14:19;;;;;;;3.63;2.00;;;;;;;19.25;44.58;100557.25;4993615;28;20829;-73
2023/04/22 07:16:45;;;;;;;3.15;1.40;;;;;;;19.31;44.43;100572.56;4983268;28;20041;-76
2023/04/22 07:19:10;;;;;;;3.25;1.70;;;;;;;19.28;44.55;100563.13;4993013;28;20033;-72
2023/04/22 07:21:36;;;;;;;3.20;1.55;;;;;;;19.29;44.60;100566.59;5001886;28;20036;-73
2023/04/22 07:24:01;;;;;;;3.20;1.60;;;;;;;19.31;44.59;100575.22;4989458;28;20030;-76
2023/04/22 07:26:26;;;;;;;3.83;1.60;;;;;;;19.29;44.89;100569.25;4974034;28;20040;-72
2023/04/22 07:28:51;;;;;;;3.83;1.73;;;;;;;19.28;44.96;100573.69;4983843;28;20421;-74
2023/04/22 07:31:17;;;;;;;3.67;1.67;;;;;;;19.30;45.11;100573.56;4997415;28;20033;-73
2023/04/22 07:33:42;;;;;;;3.42;1.65;;;;;;;19.30;44.96;100570.91;4987108;28;20042;-74
2023/04/22 07:36:07;;;;;;;2.95;1.50;;;;;;;19.31;45.01;100564.63;4982564;28;20057;-72
2023/04/22 07:38:33;;;;;;;3.80;1.70;;;;;;;19.33;45.25;100570.63;4990350;28;20487;-75
2023/04/22 07:40:58;;;;;;;2.90;1.50;;;;;;;19.31;45.17;100569.91;4987560;28;20728;-74
2023/04/22 07:43:24;;;;;;;4.60;1.63;;;;;;;19.31;45.16;100573.41;4983708;28;20042;-72
2023/04/22 07:45:50;;;;;;;3.80;1.70;;;;;;;19.29;45.23;100572.69;5001429;28;21124;-72
2023/04/22 07:48:15;;;;;;;4.10;2.00;;;;;;;19.32;45.41;100575.06;4965703;28;20376;-72
2023/04/22 07:50:40;;;;;;;3.72;1.70;;;;;;;19.32;45.41;100567.13;4977245;28;20026;-71
2023/04/22 07:53:06;;;;;;;5.30;1.83;;;;;;;19.35;45.34;100558.13;4982386;28;20030;-71
2023/04/22 07:55:31;;;;;;;4.32;1.80;;;;;;;19.34;45.51;100554.66;4987609;28;20045;-73
2023/04/22 07:57:58;;;;;;;3.60;1.70;;;;;;;19.35;45.50;100555.47;5000675;28;20929;-75
2023/04/22 08:00:24;;;;;;;5.47;1.80;;;;;;;19.34;45.49;100557.28;5000753;28;20030;-73
2023/04/22 08:02:49;;;;;;;6.88;1.80;;;;;;;19.34;45.48;100544.09;4998969;28;20045;-70
2023/04/22 08:05:15;;;;;;;3.65;1.70;;;;;;;19.34;45.51;100530.88;4994805;28;20045;-72
2023/04/22 08:07:41;;;;;;;3.50;1.55;;;;;;;19.37;45.50;100535.03;4982729;28;20041;-73
2023/04/22 08:10:06;;;;;;;4.78;2.03;;;;;;;19.39;45.45;100533.06;4984168;28;20100;-73
2023/04/22 08:12:31;;;;;;;3.22;1.70;;;;;;;19.35;45.36;100534.34;5001155;28;20068;-71
2023/04/22 08:14:57;;;;;;;3.80;1.70;;;;;;;19.36;45.34;100536.00;4983730;28;20033;-69
2023/04/22 08:17:22;;;;;;;7.15;2.00;;;;;;;19.38;45.58;100537.53;5001151;28;20117;-69
2023/04/22 08:19:48;;;;;;;3.97;1.35;;;;;;;19.38;45.54;100537.53;4973954;28;20034;-71
2023/04/22 08:22:14;;;;;;;3.20;1.58;;;;;;;19.35;45.61;100526.41;4969451;28;20050;-76
2023/04/22 08:24:40;;;;;;;5.75;1.90;;;;;;;19.37;45.43;100533.19;4985944;28;20115;-73
2023/04/22 08:27:05;;;;;;;4.85;1.70;;;;;;;19.37;45.37;100524.44;4997039;28;20034;-71
2023/04/22 08:29:31;;;;;;;3.90;1.60;;;;;;;19.39;45.53;100527.78;4985193;28;20085;-71
2023/04/22 08:31:56;;;;;;;4.65;1.80;;;;;;;19.38;45.59;100529.59;4987105;28;20034;-72
2023/04/22 08:34:23;;;;;;;3.60;1.70;;;;;;;19.36;45.73;100530.72;4990235;28;20073;-72
2023/04/22 08:36:49;;;;;;;3.25;1.70;;;;;;;19.37;45.54;100525.28;5000377;28;20279;-72
2023/04/22 08:39:14;;;;;;;5.80;1.73;;;;;;;19.36;45.40;100504.31;4976485;28;20093;-72
2023/04/22 08:41:42;;;;;;;4.18;2.00;;;;;;;19.38;45.31;100500.53;5001054;28;20034;-74
2023/04/22 08:44:08;;;;;;;4.18;1.90;;;;;;;19.38;45.35;100492.59;4990080;28;20037;-73
2023/04/22 08:46:34;;;;;;;6.78;1.95;;;;;;;19.38;44.93;100489.97;5001329;28;20056;-71
2023/04/22 08:49:02;;;;;;;3.38;1.63;;;;;;;19.36;45.18;100489.28;5001485;28;20030;-74
2023/04/22 08:51:31;;;;;;;5.30;1.65;;;;;;;19.35;45.13;100482.31;4986191;28;20394;-71
2023/04/22 08:53:56;;;;;;;4.50;1.70;;;;;;;19.38;45.11;100489.13;4983533;28;20030;-71
2023/04/22 08:56:23;;;;;;;3.63;1.48;;;;;;;19.36;44.92;100486.63;5001342;28;20084;-73
2023/04/22 08:58:49;;;;;;;5.28;2.00;;;;;;;19.36;45.00;100488.44;4981804;28;20384;-73
2023/04/22 09:01:16;;;;;;;4.00;1.80;;;;;;;19.37;45.11;100483.00;4984392;28;20037;-70
2023/04/22 09:03:42;;;;;;;3.70;1.43;;;;;;;19.37;44.92;100477.72;4976542;28;20399;-74
2023/04/22 09:06:10;;;;;;;4.32;1.63;;;;;;;19.37;45.00;100490.91;4989432;28;20056;-71
2023/04/22 09:08:35;;;;;;;4.85;1.80;;;;;;;19.38;45.08;100486.50;4994834;28;20070;-72
2023/04/22 09:11:02;;;;;;;2.53;1.40;;;;;;;19.37;45.27;100488.28;5000674;28;20430;-73
2023/04/22 09:13:28;;;;;;;3.40;1.65;;;;;;;19.37;45.22;100484.81;4982806;28;20399;-71
2023/04/22 09:15:53;;;;;;;4.03;1.58;;;;;;;19.39;45.10;100486.34;4996343;28;20466;-70
2023/04/22 09:18:19;;;;;;;7.47;1.90;;;;;;;19.38;45.14;100483.84;5001906;28;21036;-69
2023/04/22 09:20:53;;;;;;;5.88;2.72;;;;;;;19.34;45.27;100488.59;4970902;28;20054;-71
2023/04/22 09:23:18;;;;;;;;;;;;;;;19.40;45.26;100485.34;4991581;28;20410;-70
2023/04/22 09:25:44;;;;;;;7.83;2.40;;;;;;;19.42;45.39;100479.09;4966591;28;19929;-70
2023/04/22 09:28:17;;;;;;;5.35;1.65;;;;;;;19.39;44.69;100467.00;4987684;28;20104;-70
2023/04/22 09:30:43;;;;;;;4.53;1.90;;;;;;;19.39;45.19;100470.50;4982832;28;20130;-73
2023/04/22 09:33:09;;;;;;;4.50;1.80;;;;;;;19.38;45.19;100468.00;4998395;28;20030;-69
2023/04/22 09:35:38;;;;;;;3.42;1.80;;;;;;;19.38;45.13;100470.63;4988393;28;20046;-69
2023/04/22 09:38:08;;;;;;;5.03;1.90;;;;;;;19.39;45.23;100473.13;4984373;28;20602;-69
2023/04/22 09:40:35;;;;;;;4.75;2.28;;;;;;;19.39;45.38;100472.28;4981358;28;20034;-73
2023/04/22 09:43:03;;;;;;;6.22;1.77;;;;;;;19.37;45.37;100474.25;4981158;28;20793;-69
2023/04/22 09:45:40;;;;;;;4.60;1.88;;;;;;;19.39;45.33;100478.41;4996073;28;20038;-67
2023/04/22 09:48:09;;;;;;;3.72;1.70;;;;;;;19.51;45.30;100488.84;4990913;28;20475;-70
2023/04/22 09:50:36;;;;;;;3.50;1.77;;;;;;;19.52;45.08;100478.13;4985459;28;20038;-71
2023/04/22 09:53:04;;;;;;;8.90;2.00;;;;;;;19.57;44.80;100482.97;4985376;28;20052;-70
2023/04/22 09:55:33;;;;;;;4.38;2.00;;;;;;;19.53;45.47;100485.06;4997075;28;20030;-67
2023/04/22 09:58:10;;;;;;;5.07;1.55;;;;;;;19.47;45.55;100480.38;4992669;28;20065;-68
2023/04/22 10:00:48;;;;;;;4.07;2.00;;;;;;;19.47;45.52;100477.72;5001147;28;20073;-67
2023/04/22 10:03:14;;;;;;;3.75;1.77;;;;;;;19.47;45.49;100490.06;4996907;28;20029;-67
2023/04/22 10:05:40;;;;;;;4.97;1.95;;;;;;;19.48;45.50;100476.72;5001533;28;20108;-67
2023/04/22 10:08:07;;;;;;;4.82;1.77;;;;;;;19.47;45.51;100476.88;4994572;28;20042;-67
2023/04/22 10:10:33;;;;;;;6.65;1.92;;;;;;;19.45;45.51;100476.19;4974294;28;20544;-69
2023/04/22 10:12:59;;;;;;;8.57;2.20;;;;;;;19.47;45.51;100484.78;4988291;28;20041;-68
2023/04/22 10:15:30;;;;;;;6.28;1.70;;;;;;;19.43;45.39;100475.50;4986899;28;20034;-68
2023/04/22 10:17:58;;;;;;;3.35;1.85;;;;;;;19.44;45.88;100478.00;4996553;28;21016;-68
2023/04/22 10:20:27;;;;;;;7.75;2.20;;;;;;;19.45;45.95;100482.28;5002072;28;20383;-67
2023/04/22 10:22:56;;;;;;;6.03;2.08;;;;;;;19.44;45.82;100477.16;5003350;28;20391;-71
2023/04/22 10:25:22;;;;;;;4.88;1.70;;;;;;;19.47;45.81;100484.78;4985503;28;20595;-68
2023/04/22 10:28:05;;;;;;;4.00;1.77;;;;;;;19.47;45.84;100476.88;4984731;28;20030;-67
2023/04/22 10:30:33;;;;;;;4.85;1.70;;;;;;;19.48;46.02;100474.09;4985780;28;20036;-67
2023/04/22 10:33:20;;;;;;;3.60;1.73;;;;;;;19.48;46.18;100476.72;4985167;28;20030;-68
2023/04/22 10:36:04;;;;;;;4.40;1.92;;;;;;;19.50;46.21;100471.28;4991460;28;20058;-68
2023/04/22 10:38:33;;;;;;;4.53;1.90;;;;;;;19.52;46.38;100466.72;4998684;28;20534;-68
2023/04/22 10:40:59;;;;;;;5.88;2.30;;;;;;;19.52;46.75;100456.16;4983720;28;20061;-69
2023/04/22 10:44:00;;;;;;;3.90;2.20;;;;;;;19.50;46.89;100458.94;4983375;28;20061;-69
2023/04/22 10:46:31;;;;;;;5.55;2.70;;;;;;;19.49;46.92;100470.47;4903849;29;20048;-69
2023/04/22 10:49:14;;;;;;;6.00;2.78;;;;;;;19.48;46.59;100468.78;4974779;28;20490;-70
2023/04/22 10:51:44;;;;;;;5.40;3.25;;;;;;;19.51;46.71;100471.16;4998247;28;20203;-72
2023/04/22 10:54:38;;;;;;;5.95;4.00;;;;;;;19.50;46.70;100481.88;4991717;28;20046;-68
2023/04/22 10:57:06;;;;;;;9.15;6.45;;;;;;;19.49;46.59;100482.88;4988083;28;20545;-69
2023/04/22 10:59:41;;;;;;;9.20;5.88;;;;;;;19.49;46.69;100490.78;4984219;28;20084;-70
2023/04/22 11:02:08;;;;;;;13.25;7.10;;;;;;;19.48;46.86;100491.75;4993652;28;20065;-68
2023/04/22 11:04:34;;;;;;;10.32;6.60;;;;;;;19.49;46.84;100488.16;5002824;28;20041;-68
2023/04/22 11:07:11;;;;;;;8.43;7.05;;;;;;;19.46;46.50;100488.44;4985863;28;20026;-68
2023/04/22 11:09:44;;;;;;;9.55;6.32;;;;;;;19.43;46.65;100494.00;4979599;28;20029;-68
2023/04/22 11:12:37;;;;;;;7.82;6.63;;;;;;;19.43;46.25;100492.19;4994692;28;20049;-67
2023/04/22 11:15:11;;;;;;;7.45;6.20;;;;;;;19.43;46.34;100488.72;4985591;28;20037;-69
2023/04/22 11:17:38;;;;;;;8.93;6.75;;;;;;;19.42;46.52;100479.94;4992071;28;20045;-68
2023/04/22 11:20:06;;;;;;;7.85;5.80;;;;;;;19.41;46.59;100478.28;4989416;28;20096;-71
2023/04/22 11:22:42;;;;;;;7.22;5.55;;;;;;;19.41;46.86;100483.56;4988729;28;20486;-70